createdAt,value
2022-11-05T00:00:36.432Z,92.13
2022-11-05T00:03:21.498Z,92.35
2022-11-05T00:06:08.230Z,91.99
2022-11-05T00:08:53.324Z,92.05
2022-11-05T00:11:39.674Z,91.97
2022-11-05T00:14:24.700Z,92.01
2022-11-05T00:16:51.063Z,92.15
2022-11-05T00:19:17.478Z,92.18
2022-11-05T00:22:02.146Z,92.10
2022-11-05T00:24:47.189Z,92.39
2022-11-05T00:27:13.546Z,92.82
2022-11-05T00:29:39.891Z,92.33
2022-11-05T00:32:06.395Z,92.19
2022-11-05T00:34:32.839Z,92.35
2022-11-05T00:36:59.203Z,92.24
2022-11-05T00:39:25.623Z,92.51
2022-11-05T00:42:11.958Z,92.63
2022-11-05T00:44:56.938Z,92.78
2022-11-05T00:47:41.724Z,92.79
2022-11-05T00:50:10.467Z,92.69
2022-11-05T00:52:55.637Z,92.70
2022-11-05T00:55:30.477Z,92.74
2022-11-05T00:57:57.801Z,92.81
2022-11-05T01:00:26.497Z,92.63
2022-11-05T01:02:53.025Z,93.25
2022-11-05T01:05:20.104Z,93.18
2022-11-05T01:07:48.681Z,93.13
2022-11-05T01:10:15.096Z,92.98
2022-11-05T01:12:41.497Z,92.96
2022-11-05T01:15:08.503Z,93.30
2022-11-05T01:17:34.891Z,93.06
2022-11-05T01:20:01.274Z,93.18
2022-11-05T01:22:27.640Z,93.50
2022-11-05T01:24:53.978Z,93.35
2022-11-05T01:27:20.363Z,93.47
2022-11-05T01:29:46.740Z,92.88
2022-11-05T01:32:13.153Z,93.41
2022-11-05T01:34:39.554Z,93.31
2022-11-05T01:37:05.941Z,93.46
2022-11-05T01:39:32.314Z,93.85
2022-11-05T01:41:58.875Z,94.13
2022-11-05T01:45:01.867Z,93.99
2022-11-05T01:47:31.148Z,94.00
2022-11-05T01:49:59.506Z,93.73
2022-11-05T01:52:26.982Z,93.96
2022-11-05T01:54:53.373Z,93.75
2022-11-05T01:57:19.912Z,93.43
2022-11-05T01:59:49.992Z,93.29
2022-11-05T02:02:16.414Z,93.63
2022-11-05T02:04:51.079Z,93.87
2022-11-05T02:07:17.810Z,94.07
2022-11-05T02:09:49.815Z,93.65
2022-11-05T02:12:16.347Z,93.54
2022-11-05T02:14:42.768Z,93.40
2022-11-05T02:17:21.145Z,93.48
2022-11-05T02:20:22.604Z,93.42
2022-11-05T02:23:03.830Z,93.71
2022-11-05T02:25:52.078Z,93.37
2022-11-05T02:28:55.845Z,93.34
2022-11-05T02:31:31.287Z,93.55
2022-11-05T02:34:09.263Z,93.32
2022-11-05T02:36:49.425Z,93.61
2022-11-05T02:39:42.682Z,93.67
2022-11-05T02:42:43.747Z,93.64
2022-11-05T02:45:11.212Z,93.98
2022-11-05T02:47:40.454Z,93.96
2022-11-05T02:50:30.779Z,93.71
2022-11-05T02:53:16.805Z,93.47
2022-11-05T02:55:49.176Z,93.65
2022-11-05T02:58:15.552Z,93.17
2022-11-05T03:00:52.011Z,93.36
2022-11-05T03:03:32.065Z,93.15
2022-11-05T03:06:07.888Z,93.25
2022-11-05T03:08:47.873Z,93.16
2022-11-05T03:11:16.130Z,93.15
2022-11-05T03:13:51.267Z,92.77
2022-11-05T03:16:34.401Z,92.92
2022-11-05T03:19:14.943Z,92.87
2022-11-05T03:21:56.307Z,92.66
2022-11-05T03:24:29.281Z,92.88
2022-11-05T03:26:58.593Z,93.28
2022-11-05T03:29:28.990Z,93.46
2022-11-05T03:31:56.852Z,93.45
2022-11-05T03:34:28.064Z,93.14
2022-11-05T03:36:56.234Z,92.95
2022-11-05T03:39:31.224Z,92.97
2022-11-05T03:41:58.356Z,92.74
2022-11-05T03:44:31.448Z,93.14
2022-11-05T03:47:03.810Z,93.05
2022-11-05T03:49:35.682Z,92.67
2022-11-05T03:52:18.471Z,92.83
2022-11-05T03:54:45.810Z,92.94
2022-11-05T03:57:29.494Z,92.73
2022-11-05T03:59:55.907Z,92.31
2022-11-05T04:02:24.080Z,92.74
2022-11-05T04:04:51.232Z,92.64
2022-11-05T04:07:36.177Z,92.47
2022-11-05T04:10:21.155Z,92.71
2022-11-05T04:13:06.325Z,92.61
2022-11-05T04:15:55.452Z,92.66
2022-11-05T04:18:21.959Z,92.59
2022-11-05T04:21:06.891Z,92.66
2022-11-05T04:23:52.032Z,92.65
2022-11-05T04:26:23.140Z,92.75
2022-11-05T04:29:11.615Z,92.71
2022-11-05T04:31:38.211Z,92.76
2022-11-05T04:34:04.806Z,92.67
2022-11-05T04:36:31.347Z,92.88
2022-11-05T04:38:57.702Z,92.55
2022-11-05T04:41:24.089Z,92.69
2022-11-05T04:43:50.497Z,93.24
2022-11-05T04:46:16.865Z,92.99
2022-11-05T04:48:43.228Z,92.55
2022-11-05T04:51:09.649Z,92.32
2022-11-05T04:53:36.010Z,92.04
2022-11-05T04:56:14.482Z,92.14
2022-11-05T04:58:41.790Z,92.26
2022-11-05T05:01:20.139Z,92.35
2022-11-05T05:03:48.156Z,92.64
2022-11-05T05:06:14.909Z,92.52
2022-11-05T05:08:41.447Z,92.48
2022-11-05T05:11:09.416Z,92.44
2022-11-05T05:13:35.831Z,92.13
2022-11-05T05:16:07.194Z,92.13
2022-11-05T05:18:34.021Z,92.34
2022-11-05T05:21:19.519Z,92.39
2022-11-05T05:23:47.920Z,92.49
2022-11-05T05:26:15.671Z,92.38
2022-11-05T05:28:42.082Z,92.63
2022-11-05T05:31:09.117Z,92.78
2022-11-05T05:33:35.621Z,92.55
2022-11-05T05:36:07.026Z,92.67
2022-11-05T05:38:36.480Z,92.69
2022-11-05T05:41:02.940Z,92.62
2022-11-05T05:43:31.051Z,92.56
2022-11-05T05:46:01.784Z,92.89
2022-11-05T05:48:28.156Z,93.22
2022-11-05T05:50:54.640Z,93.05
2022-11-05T05:53:21.000Z,93.53
2022-11-05T05:55:47.388Z,93.01
2022-11-05T05:58:13.788Z,92.95
2022-11-05T06:00:40.144Z,93.14
2022-11-05T06:03:06.724Z,93.17
2022-11-05T06:05:33.169Z,93.10
2022-11-05T06:07:59.582Z,92.83
2022-11-05T06:10:29.067Z,92.40
2022-11-05T06:12:55.609Z,92.63
2022-11-05T06:15:22.041Z,92.92
2022-11-05T06:17:48.430Z,92.60
2022-11-05T06:20:14.871Z,92.84
2022-11-05T06:22:41.312Z,92.96
2022-11-05T06:25:08.321Z,92.95
2022-11-05T06:27:36.713Z,92.60
2022-11-05T06:30:06.659Z,93.01
2022-11-05T06:32:40.086Z,93.03
2022-11-05T06:35:06.958Z,93.20
2022-11-05T06:37:36.076Z,92.75
2022-11-05T06:43:22.844Z,93.69
2022-11-05T06:45:59.753Z,93.25
2022-11-05T06:48:26.398Z,93.23
2022-11-05T06:50:53.818Z,93.41
2022-11-05T06:53:23.359Z,92.76
2022-11-05T06:55:49.874Z,92.99
2022-11-05T06:58:16.365Z,92.83
2022-11-05T07:00:45.471Z,92.92
2022-11-05T07:03:20.389Z,92.38
2022-11-05T07:05:49.051Z,92.96
2022-11-05T07:08:21.327Z,92.86
2022-11-05T07:10:48.379Z,92.76
2022-11-05T07:13:17.630Z,92.78
2022-11-05T07:16:07.491Z,92.79
2022-11-05T07:18:52.983Z,92.83
2022-11-05T07:21:24.520Z,92.69
2022-11-05T07:23:50.982Z,92.93
2022-11-05T07:26:17.401Z,93.02
2022-11-05T07:28:43.784Z,92.99
2022-11-05T07:31:10.183Z,93.01
2022-11-05T07:33:36.936Z,93.09
2022-11-05T07:36:03.627Z,92.74
2022-11-05T07:38:30.690Z,92.81
2022-11-05T07:40:59.491Z,93.48
2022-11-05T07:43:25.879Z,93.50
2022-11-05T07:45:52.312Z,93.55
2022-11-05T07:48:18.737Z,93.12
2022-11-05T07:50:45.160Z,93.30
2022-11-05T07:53:14.041Z,93.18
2022-11-05T07:55:41.593Z,93.29
2022-11-05T07:58:08.132Z,93.00
2022-11-05T08:00:47.470Z,93.25
2022-11-05T08:03:16.066Z,93.21
2022-11-05T08:05:46.668Z,93.35
2022-11-05T08:08:16.002Z,92.86
2022-11-05T08:10:42.931Z,93.08
2022-11-05T08:13:10.097Z,93.08
2022-11-05T08:15:52.675Z,93.19
2022-11-05T08:18:22.727Z,92.96
2022-11-05T08:20:54.095Z,92.78
2022-11-05T08:23:52.867Z,92.57
2022-11-05T08:26:22.825Z,92.76
2022-11-05T08:28:52.278Z,92.65
2022-11-05T08:31:21.135Z,92.15
2022-11-05T08:33:48.731Z,92.18
2022-11-05T08:36:17.323Z,92.05
2022-11-05T08:38:45.992Z,92.17
2022-11-05T08:41:13.496Z,92.12
2022-11-05T08:43:48.565Z,92.28
2022-11-05T08:46:15.001Z,92.46
2022-11-05T08:48:41.445Z,92.47
2022-11-05T08:51:12.680Z,92.40
2022-11-05T08:53:39.059Z,92.35
2022-11-05T08:56:05.696Z,92.14
2022-11-05T08:58:32.788Z,91.21
2022-11-05T09:01:04.754Z,90.44
2022-11-05T09:03:31.713Z,89.37
2022-11-05T09:05:58.058Z,88.68
2022-11-05T09:08:24.437Z,87.74
2022-11-05T09:10:53.784Z,87.23
2022-11-05T09:13:33.406Z,86.06
2022-11-05T09:16:01.876Z,86.04
2022-11-05T09:18:45.928Z,85.57
2022-11-05T09:21:12.338Z,85.66
2022-11-05T09:23:39.273Z,85.93
2022-11-05T09:26:05.796Z,84.63
2022-11-05T09:28:33.111Z,83.38
2022-11-05T09:31:00.487Z,82.79
2022-11-05T09:33:26.986Z,81.91
2022-11-05T09:35:53.649Z,81.44
2022-11-05T09:38:20.204Z,81.46
2022-11-05T09:41:07.223Z,80.26
2022-11-05T09:43:51.898Z,79.44
2022-11-05T09:46:19.358Z,81.16
2022-11-05T09:48:48.621Z,80.37
2022-11-05T09:51:22.403Z,80.34
2022-11-05T09:53:50.535Z,80.70
2022-11-05T09:56:36.831Z,78.86
2022-11-05T09:59:06.982Z,78.63
2022-11-05T10:01:36.342Z,78.47
2022-11-05T10:04:08.398Z,77.45
2022-11-05T10:06:35.710Z,76.66
2022-11-05T10:09:08.036Z,76.29
2022-11-05T10:11:41.122Z,76.36
2022-11-05T10:14:17.197Z,77.40
2022-11-05T10:16:44.046Z,76.71
2022-11-05T10:19:24.490Z,78.86
2022-11-05T10:22:10.968Z,79.17
2022-11-05T10:24:55.433Z,79.13
2022-11-05T10:27:32.128Z,79.36
2022-11-05T10:29:58.659Z,79.78
2022-11-05T10:32:35.637Z,79.96
2022-11-05T10:35:05.025Z,79.85
2022-11-05T10:37:31.918Z,79.27
2022-11-05T10:39:58.441Z,79.96
2022-11-05T10:42:36.912Z,78.74
2022-11-05T10:45:25.774Z,79.75
2022-11-05T10:48:02.060Z,79.87
2022-11-05T10:50:29.640Z,79.79
2022-11-05T10:53:32.754Z,80.13
2022-11-05T10:55:59.260Z,80.03
2022-11-05T10:58:28.948Z,79.90
2022-11-05T11:00:55.293Z,80.28
2022-11-05T11:03:35.350Z,79.16
2022-11-05T11:06:07.652Z,78.98
2022-11-05T11:08:35.666Z,80.20
2022-11-05T11:11:07.948Z,80.12
2022-11-05T11:14:03.763Z,79.85
2022-11-05T11:16:36.054Z,80.32
2022-11-05T11:19:03.206Z,79.97
2022-11-05T11:21:31.612Z,79.42
2022-11-05T11:24:00.774Z,78.83
2022-11-05T11:26:34.658Z,78.60
2022-11-05T11:29:16.923Z,78.68
2022-11-05T11:31:43.332Z,77.80
2022-11-05T11:34:22.262Z,76.56
2022-11-05T11:36:55.508Z,75.30
2022-11-05T11:39:24.405Z,76.14
2022-11-05T11:41:53.779Z,77.31
2022-11-05T11:44:26.909Z,77.38
2022-11-05T11:46:56.616Z,77.87
2022-11-05T11:49:46.629Z,74.78
2022-11-05T11:52:19.352Z,76.74
2022-11-05T11:54:45.763Z,76.69
2022-11-05T11:57:23.978Z,75.77
2022-11-05T12:00:08.328Z,75.62
2022-11-05T12:02:54.791Z,75.32
2022-11-05T12:05:34.413Z,76.82
2022-11-05T12:08:28.113Z,76.44
2022-11-05T12:11:04.636Z,76.25
2022-11-05T12:13:39.018Z,74.95
2022-11-05T12:16:25.337Z,74.84
2022-11-05T12:19:06.107Z,74.39
2022-11-05T12:21:52.961Z,73.63
2022-11-05T12:24:40.906Z,73.34
2022-11-05T12:27:19.274Z,73.19
2022-11-05T12:30:10.057Z,71.51
2022-11-05T12:33:06.775Z,72.20
2022-11-05T12:36:03.754Z,71.73
2022-11-05T12:38:30.002Z,73.28
2022-11-05T12:41:15.223Z,71.12
2022-11-05T12:43:56.825Z,70.38
2022-11-05T12:46:26.079Z,71.17
2022-11-05T12:49:04.656Z,70.05
2022-11-05T12:51:51.139Z,70.01
2022-11-05T12:54:25.858Z,70.61
2022-11-05T12:57:01.680Z,70.77
2022-11-05T12:59:37.495Z,70.07
2022-11-05T13:02:18.989Z,71.01
2022-11-05T13:05:17.554Z,69.99
2022-11-05T13:07:53.246Z,70.27
2022-11-05T13:10:31.672Z,69.68
2022-11-05T13:13:19.138Z,69.83
2022-11-05T13:15:55.181Z,69.77
2022-11-05T13:18:23.949Z,70.93
2022-11-05T13:20:52.251Z,71.00
2022-11-05T13:23:32.414Z,70.37
2022-11-05T13:26:13.417Z,70.71
2022-11-05T13:29:01.795Z,69.79
2022-11-05T13:31:34.823Z,70.29
2022-11-05T13:34:04.472Z,69.55
2022-11-05T13:36:52.442Z,69.50
2022-11-05T13:39:29.847Z,70.71
2022-11-05T13:42:15.188Z,69.56
2022-11-05T13:44:59.505Z,69.44
2022-11-05T13:47:53.817Z,71.73
2022-11-05T13:50:51.143Z,71.18
2022-11-05T13:53:42.668Z,70.25
2022-11-05T13:56:31.250Z,71.12
2022-11-05T13:59:04.855Z,70.90
2022-11-05T14:01:53.066Z,70.12
2022-11-05T14:04:31.090Z,70.44
2022-11-05T14:07:12.813Z,70.13
2022-11-05T14:09:40.319Z,69.78
2022-11-05T14:12:17.015Z,70.64
2022-11-05T14:14:44.896Z,70.47
2022-11-05T14:17:22.636Z,70.12
2022-11-05T14:20:02.731Z,71.08
2022-11-05T14:22:32.135Z,70.98
2022-11-05T14:24:59.660Z,70.67
2022-11-05T14:27:34.106Z,71.50
2022-11-05T14:30:00.521Z,71.68
2022-11-05T14:32:42.514Z,72.05
2022-11-05T14:35:14.899Z,72.14
2022-11-05T14:37:42.413Z,73.20
2022-11-05T14:40:38.331Z,74.06
2022-11-05T14:43:19.289Z,73.24
2022-11-05T14:46:03.429Z,73.56
2022-11-05T14:48:43.972Z,73.50
2022-11-05T14:51:38.211Z,73.41
2022-11-05T14:54:22.944Z,74.27
2022-11-05T14:56:57.952Z,73.57
2022-11-05T14:59:24.247Z,73.89
2022-11-05T15:01:50.612Z,74.44
2022-11-05T15:04:31.455Z,74.30
2022-11-05T15:07:04.174Z,73.76
2022-11-05T15:09:56.243Z,74.30
2022-11-05T15:12:42.531Z,74.21
2022-11-05T15:15:27.918Z,74.42
2022-11-05T15:18:16.854Z,75.03
2022-11-05T15:20:46.107Z,74.84
2022-11-05T15:23:15.849Z,74.99
2022-11-05T15:25:53.120Z,75.81
2022-11-05T15:28:36.525Z,75.86
2022-11-05T15:31:05.822Z,75.56
2022-11-05T15:33:32.748Z,75.43
2022-11-05T15:36:20.850Z,75.20
2022-11-05T15:39:08.232Z,75.70
2022-11-05T15:41:34.489Z,75.82
2022-11-05T15:44:02.619Z,75.33
2022-11-05T15:46:29.197Z,75.69
2022-11-05T15:48:58.972Z,75.31
2022-11-05T15:51:26.154Z,75.35
2022-11-05T15:56:45.310Z,75.87
2022-11-05T15:59:17.268Z,75.81
2022-11-05T16:01:52.314Z,75.48
2022-11-05T16:04:26.256Z,75.53
2022-11-05T16:06:54.893Z,76.18
2022-11-05T16:09:27.174Z,76.70
2022-11-05T16:12:19.677Z,76.72
2022-11-05T16:14:59.175Z,76.89
2022-11-05T16:17:27.827Z,76.86
2022-11-05T16:19:54.617Z,76.82
2022-11-05T16:22:21.083Z,77.47
2022-11-05T16:24:48.083Z,77.42
2022-11-05T16:27:23.497Z,77.16
2022-11-05T16:29:57.104Z,77.62
2022-11-05T16:32:31.362Z,78.15
2022-11-05T16:35:03.618Z,78.46
2022-11-05T16:37:36.726Z,78.60
2022-11-05T16:40:06.102Z,78.71
2022-11-05T16:42:32.361Z,78.69
2022-11-05T16:44:58.719Z,78.99
2022-11-05T16:47:26.298Z,79.10
2022-11-05T16:49:52.686Z,78.84
2022-11-05T16:52:19.067Z,78.77
2022-11-05T16:54:45.488Z,78.92
2022-11-05T16:57:23.639Z,79.23
2022-11-05T16:59:50.009Z,79.41
2022-11-05T17:02:16.552Z,79.62
2022-11-05T17:04:42.980Z,79.40
2022-11-05T17:07:09.349Z,79.90
2022-11-05T17:09:35.702Z,80.24
2022-11-05T17:12:02.397Z,79.93
2022-11-05T17:14:28.821Z,80.23
2022-11-05T17:16:55.192Z,79.99
2022-11-05T17:19:21.573Z,79.81
2022-11-05T17:21:48.426Z,79.90
2022-11-05T17:24:14.787Z,79.48
2022-11-05T17:26:41.143Z,79.53
2022-11-05T17:29:07.514Z,80.09
2022-11-05T17:31:33.887Z,80.26
2022-11-05T17:34:00.427Z,80.57
2022-11-05T17:36:27.125Z,80.51
2022-11-05T17:38:53.640Z,80.95
2022-11-05T17:41:21.987Z,81.13
2022-11-05T17:43:53.214Z,81.24
2022-11-05T17:46:19.831Z,81.72
2022-11-05T17:48:46.384Z,81.38
2022-11-05T17:51:18.419Z,81.41
2022-11-05T17:53:45.482Z,81.52
2022-11-05T17:56:22.149Z,81.81
2022-11-05T17:58:55.364Z,82.09
2022-11-05T18:01:30.370Z,81.54
2022-11-05T18:03:56.868Z,81.59
2022-11-05T18:06:23.418Z,81.96
2022-11-05T18:08:49.845Z,81.88
2022-11-05T18:11:16.365Z,82.28
2022-11-05T18:13:42.786Z,83.20
2022-11-05T18:16:09.480Z,83.92
2022-11-05T18:18:35.888Z,83.78
2022-11-05T18:21:02.336Z,84.15
2022-11-05T18:23:28.720Z,84.51
2022-11-05T18:25:55.088Z,84.88
2022-11-05T18:28:21.470Z,85.45
2022-11-05T18:30:47.889Z,85.48
2022-11-05T18:33:14.507Z,85.32
2022-11-05T18:35:44.756Z,85.36
2022-11-05T18:38:11.542Z,85.31
2022-11-05T18:40:38.090Z,85.32
2022-11-05T18:43:04.486Z,85.56
2022-11-05T18:45:31.891Z,85.45
2022-11-05T18:48:00.242Z,85.41
2022-11-05T18:50:27.572Z,85.35
2022-11-05T18:52:54.038Z,85.22
2022-11-05T18:55:20.724Z,85.32
2022-11-05T18:57:47.209Z,84.98
2022-11-05T19:00:14.227Z,84.63
2022-11-05T19:02:40.695Z,85.06
2022-11-05T19:05:28.060Z,85.03
2022-11-05T19:07:54.113Z,85.27
2022-11-05T19:10:20.484Z,85.64
2022-11-05T19:12:46.863Z,85.46
2022-11-05T19:15:13.251Z,85.33
2022-11-05T19:17:39.617Z,84.81
2022-11-05T19:20:06.843Z,84.91
2022-11-05T19:22:33.272Z,84.76
2022-11-05T19:24:59.648Z,84.96
2022-11-05T19:27:26.007Z,84.93
2022-11-05T19:29:52.428Z,84.14
2022-11-05T19:32:18.854Z,84.83
2022-11-05T19:34:45.225Z,84.21
2022-11-05T19:37:12.271Z,84.50
2022-11-05T19:39:40.125Z,84.29
2022-11-05T19:42:06.883Z,84.06
2022-11-05T19:44:33.304Z,84.21
2022-11-05T19:46:59.733Z,83.90
2022-11-05T19:49:28.125Z,83.51
2022-11-05T19:51:54.537Z,83.80
2022-11-05T19:54:20.901Z,83.57
2022-11-05T19:56:49.680Z,83.55
2022-11-05T19:59:16.045Z,83.50
2022-11-05T20:01:42.807Z,83.29
2022-11-05T20:04:09.695Z,83.36
2022-11-05T20:06:38.737Z,83.62
2022-11-05T20:09:20.945Z,83.33
2022-11-05T20:11:49.242Z,83.36
2022-11-05T20:14:15.645Z,83.38
2022-11-05T20:16:42.724Z,83.07
2022-11-05T20:19:11.691Z,83.05
2022-11-05T20:21:38.064Z,83.17
2022-11-05T20:24:04.592Z,82.54
2022-11-05T20:26:31.634Z,82.26
2022-11-05T20:28:58.255Z,82.81
2022-11-05T20:31:25.195Z,83.00
2022-11-05T20:33:52.047Z,82.55
2022-11-05T20:36:21.989Z,82.44
2022-11-05T20:38:52.528Z,82.60
2022-11-05T20:41:19.143Z,82.66
2022-11-05T20:43:46.702Z,82.54
2022-11-05T20:46:15.496Z,82.45
2022-11-05T20:48:42.813Z,82.34
2022-11-05T20:51:12.223Z,82.57
2022-11-05T20:53:39.030Z,82.85
2022-11-05T20:56:09.984Z,82.60
2022-11-05T20:58:37.590Z,82.73
2022-11-05T21:01:05.129Z,82.49
2022-11-05T21:03:31.594Z,82.75
2022-11-05T21:06:00.761Z,82.61
2022-11-05T21:08:27.903Z,82.72
2022-11-05T21:10:55.294Z,82.61
2022-11-05T21:13:22.388Z,82.47
2022-11-05T21:15:50.888Z,82.79
2022-11-05T21:18:18.461Z,82.98
2022-11-05T21:20:45.899Z,83.00
2022-11-05T21:23:13.010Z,83.26
2022-11-05T21:25:40.556Z,82.89
2022-11-05T21:28:07.950Z,82.83
2022-11-05T21:30:36.508Z,83.32
2022-11-05T21:33:05.101Z,83.05
2022-11-05T21:35:31.735Z,82.95
2022-11-05T21:37:58.230Z,83.01
2022-11-05T21:40:24.615Z,82.71
2022-11-05T21:42:51.002Z,82.88
2022-11-05T21:45:17.497Z,82.87
2022-11-05T21:47:43.946Z,82.72
2022-11-05T21:50:10.414Z,82.82
2022-11-05T21:52:55.427Z,82.35
2022-11-05T21:55:40.492Z,82.83
2022-11-05T21:58:32.705Z,82.76
2022-11-05T22:01:00.311Z,83.16
2022-11-05T22:03:26.915Z,82.96
2022-11-05T22:05:53.691Z,83.01
2022-11-05T22:08:20.046Z,83.06
2022-11-05T22:10:46.428Z,83.13
2022-11-05T22:13:12.810Z,83.07
2022-11-05T22:15:39.217Z,83.26
2022-11-05T22:18:05.625Z,83.45
2022-11-05T22:20:31.991Z,82.87
2022-11-05T22:22:58.368Z,83.47
2022-11-05T22:25:24.738Z,83.08
2022-11-05T22:27:51.111Z,83.47
2022-11-05T22:30:17.498Z,83.23
2022-11-05T22:32:44.026Z,82.99
2022-11-05T22:35:10.477Z,83.46
2022-11-05T22:37:36.867Z,82.95
2022-11-05T22:40:03.667Z,83.09
2022-11-05T22:42:30.100Z,82.81
2022-11-05T22:44:58.100Z,82.73
2022-11-05T22:47:24.459Z,82.86
2022-11-05T22:49:51.029Z,82.94
2022-11-05T22:52:17.840Z,83.22
2022-11-05T22:54:44.198Z,83.42
2022-11-05T22:57:10.590Z,83.13
2022-11-05T22:59:37.022Z,83.29
2022-11-05T23:02:09.177Z,83.46
2022-11-05T23:04:36.392Z,83.16
2022-11-05T23:07:27.077Z,83.51
2022-11-05T23:10:12.719Z,82.96
2022-11-05T23:12:39.076Z,83.18
2022-11-05T23:15:07.479Z,83.83
2022-11-05T23:17:52.545Z,83.45
2022-11-05T23:20:41.605Z,83.69
2022-11-05T23:23:30.684Z,83.27
2022-11-05T23:25:58.644Z,83.47
2022-11-05T23:28:25.258Z,83.47
2022-11-05T23:31:10.301Z,83.69
2022-11-05T23:33:37.157Z,83.69
2022-11-05T23:36:22.329Z,83.86
2022-11-05T23:38:48.703Z,83.22
2022-11-05T23:41:33.701Z,83.97
2022-11-05T23:44:18.649Z,83.49
2022-11-05T23:47:03.694Z,83.85
2022-11-05T23:49:30.086Z,83.90
2022-11-05T23:51:56.495Z,83.60
2022-11-05T23:54:22.940Z,83.57
2022-11-05T23:56:49.302Z,83.75
2022-11-05T23:59:15.662Z,83.21
